Springlake, TX (79082)

09:35 PM CST am 23. Februar 2017 (GMT -0600)
MONST2 | | Change Station
aktive Warnung: Fire Weather Watch

Höhe 3562 ft 34.09 °N, 102.12 °W | Updated 48 minutes ago

Heiter
Heiter
61.0 °F
gefühlte 61.0 °F
N
22.0
Wind Wechselnd Wind aus West-Südwest
Gusts 26.0 mph

Heute
Max. -- | schwach -- °F
--% Regenrisiko
Gestern
Max. -- | schwach -- °F
Precip. -- inch
Druck 29.60 inch
Sichtweite 10.0 Meilen
Wolken Heiter
Taupunkt 7 °F
Feuchtigkeit 11%
Regen 0.00 inch
Schneehöhe Nicht verfügbar..
7:24 AM 6:40 PM
Letztes Viertel, 7% visible
METAR KPVW 240315Z AUTO 24010KT 10SM CLR 11/M12 A2960 RMK AO2 T01131117 TSNO
Druck 29.60 inch
Sichtweite 10.0 Meilen
Wolken Heiter
Taupunkt 7 °F
Feuchtigkeit 11%
Regen 0.00 inch
Schneehöhe Nicht verfügbar..
7:24 AM 6:40 PM
Letztes Viertel, 7% visible
METAR KPVW 240315Z AUTO 24010KT 10SM CLR 11/M12 A2960 RMK AO2 T01131117 TSNO

Get Your Daily Forecast Email!

Thanks for signing up!

Be on the lookout for a verification email in your inbox.

You'll start receiving the daily forecast at 8 AM.

×

10-Day Weather Forecast

Almanac

Astronomie

Feb. 23, 2017 Aufgang Untergang
Genaue Zeit
Bürgerliche Dämmerung
Nautische Dämmerung
Astronomische Dämmerung
Mond
Länge des sichtbaren Lichts
Tageslänge
Tomorrow will be .
, % of the Moon is Illuminated

Heutige Rekorde

State Highs State Lows

Community

WunderPhotos

Upload Photos

1,962,540 Fotos hochgeladen!

WunderBlog® & News

Nearby

Luftqualität

  Luftqualität LQ Index Schadstoff
Not available.

Schneehöhe

Station Depth Höhe

Erdbebenaktivität

Stadt Distance Mag. Time & Date
Minimum magnitude displayed is 2.5.

küstennahe Wassertemperaturen

Ort Temperatur

Stations

Wetterstationen in der Umgebung

Stationsstandort Temp. Windchill Taupunkt Feuchtigkeit Wind Precip. Höhe Aktualisiert Art
                   

Watches & Warnings

Fire Weather Watch
Issued: 20:17 CST Feb. 23, 2017 – National Weather Service

... Fire Weather Watch remains in effect from Friday morning
through Friday evening for all of the South Plains and far
southwest Panhandle for 20 foot winds of 20 mph or more...
relative humidities of 15 percent or less and a high fire
danger...

* winds... northwest 15 to 25 mph.

* Relative humidity... 5 to 15 percent.

* Fuels... very dry.

* Impacts... fires can spread rapidly in these conditions.
Outdoorburning should be postponed until winds subside.

Precautionary/preparedness actions...

A Fire Weather Watch means that critical fire weather conditions
are forecast to occur. Monitor later forecasts and possible red
flag warnings.